Humboldt, South Dakota
Current Conditions -  °F | °C
As of 12:56 PM on Friday 24 Oct 2014 (Local Time) from KFSD Reporting Station
Broken Clouds Broken Clouds  
Wind Chill: 69°   Ceiling: 20000
Heat Index: 69°   Visibility: 10mi
Dew Point: 50°   Wind: 3mph
Humidity: 51%   Direction: 290°WNW
Pressure: 29.9"   Gusts: NA
Location:  43.65°N, 97.07°W
Report Text: KFSD 241756Z 29003KT 10SM BKN200 21/10 A2990 RMK AO2 SLP124 T02060100 10211 20089 50005
Loading
Personal Weather Stations






























Interactive Weather Map
Tropical Storm Tracking
New forecast layout! Learn more

10-Day Weather Forecast

Advertisements
Track Severe Weather on mobile